createdAt,value
2023-04-16T00:01:10.371Z,101855.34
2023-04-16T00:03:37.138Z,101861.25
2023-04-16T00:06:04.260Z,101858.81
2023-04-16T00:08:31.223Z,101862.06
2023-04-16T00:10:57.812Z,101867.25
2023-04-16T00:13:26.114Z,101860.34
2023-04-16T00:15:52.934Z,101866.78
2023-04-16T00:18:21.166Z,101867.72
2023-04-16T00:20:49.249Z,101870.47
2023-04-16T00:23:15.873Z,101865.53
2023-04-16T00:25:42.901Z,101870.81
2023-04-16T00:28:11.013Z,101868.88
2023-04-16T00:30:37.964Z,101876.97
2023-04-16T00:33:04.973Z,101864.09
2023-04-16T00:35:31.563Z,101869.34
2023-04-16T00:37:58.217Z,101865.47
2023-04-16T00:40:28.849Z,101861.00
2023-04-16T00:42:55.619Z,101862.06
2023-04-16T00:45:22.423Z,101867.72
2023-04-16T00:47:49.382Z,101869.59
2023-04-16T00:50:16.384Z,101868.22
2023-04-16T00:52:43.509Z,101873.16
2023-04-16T00:55:13.443Z,101865.00
2023-04-16T00:57:40.002Z,101871.06
2023-04-16T01:00:07.177Z,101871.00
2023-04-16T01:02:34.568Z,101869.94
2023-04-16T01:05:02.266Z,101871.31
2023-04-16T01:07:29.114Z,101875.94
2023-04-16T01:09:56.363Z,101873.50
2023-04-16T01:12:23.202Z,101875.47
2023-04-16T01:14:50.027Z,101870.72
2023-04-16T01:17:16.540Z,101875.59
2023-04-16T01:19:43.185Z,101877.38
2023-04-16T01:22:09.623Z,101866.59
2023-04-16T01:24:36.583Z,101866.06
2023-04-16T01:27:03.222Z,101863.50
2023-04-16T01:29:29.863Z,101870.06
2023-04-16T01:31:56.366Z,101873.41
2023-04-16T01:34:23.188Z,101876.53
2023-04-16T01:36:49.754Z,101874.22
2023-04-16T01:39:16.601Z,101883.84
2023-04-16T01:41:43.742Z,101881.47
2023-04-16T01:44:10.709Z,101872.69
2023-04-16T01:46:37.861Z,101873.59
2023-04-16T01:49:04.720Z,101880.06
2023-04-16T01:51:32.186Z,101881.50
2023-04-16T01:53:58.884Z,101882.63
2023-04-16T01:56:25.959Z,101884.50
2023-04-16T01:58:53.198Z,101890.06
2023-04-16T02:01:19.973Z,101886.66
2023-04-16T02:03:47.405Z,101888.47
2023-04-16T02:06:14.777Z,101890.25
2023-04-16T02:08:41.793Z,101884.31
2023-04-16T02:11:08.382Z,101896.22
2023-04-16T02:13:35.051Z,101886.44
2023-04-16T02:16:02.500Z,101888.63
2023-04-16T02:18:29.037Z,101891.78
2023-04-16T02:20:58.410Z,101891.00
2023-04-16T02:23:24.874Z,101892.28
2023-04-16T02:25:51.637Z,101888.56
2023-04-16T02:28:18.284Z,101880.22
2023-04-16T02:30:45.079Z,101891.72
2023-04-16T02:33:12.522Z,101882.63
2023-04-16T02:35:40.199Z,101882.91
2023-04-16T02:38:07.462Z,101887.00
2023-04-16T02:40:34.046Z,101893.19
2023-04-16T02:43:00.767Z,101888.16
2023-04-16T02:45:27.384Z,101887.31
2023-04-16T02:47:53.960Z,101895.56
2023-04-16T02:50:20.520Z,101893.59
2023-04-16T02:52:47.084Z,101896.41
2023-04-16T02:55:13.781Z,101892.47
2023-04-16T02:57:40.772Z,101892.59
2023-04-16T03:00:10.176Z,101895.28
2023-04-16T03:02:36.894Z,101905.13
2023-04-16T03:05:04.152Z,101897.97
2023-04-16T03:07:30.801Z,101894.19
2023-04-16T03:09:57.421Z,101903.88
2023-04-16T03:12:23.835Z,101897.56
2023-04-16T03:14:53.450Z,101903.16
2023-04-16T03:17:19.995Z,101913.28
2023-04-16T03:19:46.442Z,101907.28
2023-04-16T03:22:13.038Z,101913.88
2023-04-16T03:24:39.596Z,101915.59
2023-04-16T03:27:06.114Z,101921.16
2023-04-16T03:29:32.546Z,101923.13
2023-04-16T03:31:59.165Z,101920.78
2023-04-16T03:34:25.873Z,101916.97
2023-04-16T03:36:52.354Z,101924.44
2023-04-16T03:39:19.454Z,101927.13
2023-04-16T03:41:46.204Z,101923.94
2023-04-16T03:44:12.757Z,101919.00
2023-04-16T03:46:39.292Z,101919.53
2023-04-16T03:49:06.283Z,101916.97
2023-04-16T03:51:32.880Z,101920.13
2023-04-16T03:53:59.349Z,101924.94
2023-04-16T03:56:26.007Z,101922.28
2023-04-16T03:58:52.728Z,101923.34
2023-04-16T04:01:19.166Z,101929.34
2023-04-16T04:03:46.133Z,101924.53
2023-04-16T04:06:12.821Z,101925.44
2023-04-16T04:08:39.631Z,101924.38
2023-04-16T04:11:06.149Z,101928.59
2023-04-16T04:13:32.600Z,101925.50
2023-04-16T04:15:59.163Z,101927.75
2023-04-16T04:18:25.692Z,101932.53
2023-04-16T04:20:52.490Z,101929.25
2023-04-16T04:23:18.937Z,101933.78
2023-04-16T04:25:45.463Z,101924.50
2023-04-16T04:28:11.894Z,101933.94
2023-04-16T04:30:38.403Z,101934.03
2023-04-16T04:33:04.873Z,101933.75
2023-04-16T04:35:31.319Z,101940.16
2023-04-16T04:37:57.704Z,101944.44
2023-04-16T04:40:24.185Z,101952.00
2023-04-16T04:42:50.695Z,101949.63
2023-04-16T04:45:17.331Z,101952.47
2023-04-16T04:47:43.761Z,101953.28
2023-04-16T04:50:10.857Z,101958.91
2023-04-16T04:52:37.315Z,101958.66
2023-04-16T04:55:03.976Z,101959.56
2023-04-16T04:57:30.490Z,101960.88
2023-04-16T04:59:56.916Z,101970.91
2023-04-16T05:02:23.424Z,101966.63
2023-04-16T05:04:49.983Z,101966.59
2023-04-16T05:07:16.475Z,101970.16
2023-04-16T05:09:42.904Z,101962.31
2023-04-16T05:12:09.382Z,101974.38
2023-04-16T05:14:36.419Z,101974.09
2023-04-16T05:17:03.040Z,101969.97
2023-04-16T05:19:29.614Z,101964.06
2023-04-16T05:21:56.255Z,101965.16
2023-04-16T05:24:22.756Z,101969.19
2023-04-16T05:26:49.269Z,101958.75
2023-04-16T05:29:15.950Z,101967.56
2023-04-16T05:31:42.589Z,101970.66
2023-04-16T05:34:09.031Z,101971.75
2023-04-16T05:36:35.497Z,101971.59
2023-04-16T05:39:02.055Z,101978.47
2023-04-16T05:41:28.541Z,101971.88
2023-04-16T05:43:54.971Z,101978.47
2023-04-16T05:46:21.507Z,101981.81
2023-04-16T05:48:48.037Z,101979.44
2023-04-16T05:51:14.578Z,101976.41
2023-04-16T05:53:41.727Z,101979.88
2023-04-16T05:56:08.574Z,101991.25
2023-04-16T05:58:35.233Z,101985.09
2023-04-16T06:01:01.890Z,101985.63
2023-04-16T06:03:28.547Z,101993.47
2023-04-16T06:05:55.127Z,101999.03
2023-04-16T06:08:21.750Z,102000.94
2023-04-16T06:10:48.811Z,102003.84
2023-04-16T06:13:15.348Z,102004.25
2023-04-16T06:15:41.906Z,102002.53
2023-04-16T06:18:08.522Z,102001.03
2023-04-16T06:20:35.126Z,102006.56
2023-04-16T06:23:01.686Z,102008.38
2023-04-16T06:25:28.216Z,102001.97
2023-04-16T06:27:54.791Z,102003.44
2023-04-16T06:30:21.393Z,101999.13
2023-04-16T06:32:49.605Z,102002.19
2023-04-16T06:35:16.241Z,102004.16
2023-04-16T06:37:42.648Z,102007.78
2023-04-16T06:40:09.615Z,102015.34
2023-04-16T06:42:36.374Z,102011.00
2023-04-16T06:45:02.843Z,102013.06
2023-04-16T06:47:29.369Z,102018.47
2023-04-16T06:49:55.881Z,102017.78
2023-04-16T06:52:22.387Z,102019.59
2023-04-16T06:54:48.966Z,102022.19
2023-04-16T06:57:16.236Z,102028.50
2023-04-16T06:59:42.773Z,102027.03
2023-04-16T07:02:10.954Z,102027.75
2023-04-16T07:04:37.566Z,102037.91
2023-04-16T07:07:04.146Z,102036.97
2023-04-16T07:09:30.635Z,102048.72
2023-04-16T07:11:57.124Z,102043.25
2023-04-16T07:14:23.560Z,102043.88
2023-04-16T07:16:50.214Z,102048.47
2023-04-16T07:19:16.758Z,102051.31
2023-04-16T07:21:43.759Z,102060.88
2023-04-16T07:24:11.663Z,102058.59
2023-04-16T07:26:38.127Z,102063.22
2023-04-16T07:29:04.563Z,102058.56
2023-04-16T07:31:31.140Z,102066.91
2023-04-16T07:33:58.313Z,102062.88
2023-04-16T07:36:24.810Z,102062.53
2023-04-16T07:38:51.305Z,102064.19
2023-04-16T07:41:17.828Z,102068.63
2023-04-16T07:43:44.288Z,102070.28
2023-04-16T07:46:11.025Z,102081.41
2023-04-16T07:48:37.483Z,102086.81
2023-04-16T07:51:04.061Z,102085.56
2023-04-16T07:53:30.801Z,102081.53
2023-04-16T07:55:57.261Z,102087.09
2023-04-16T07:58:23.669Z,102085.13
2023-04-16T08:00:51.083Z,102090.63
2023-04-16T08:03:18.284Z,102087.66
2023-04-16T08:05:44.987Z,102082.38
2023-04-16T08:08:11.572Z,102094.75
2023-04-16T08:10:39.012Z,102098.94
2023-04-16T08:13:05.533Z,102099.47
2023-04-16T08:15:32.368Z,102108.25
2023-04-16T08:17:59.616Z,102111.59
2023-04-16T08:20:26.344Z,102109.09
2023-04-16T08:22:54.891Z,102113.28
2023-04-16T08:25:22.834Z,102114.28
2023-04-16T08:27:49.487Z,102112.34
2023-04-16T08:30:16.769Z,102113.56
2023-04-16T08:32:43.597Z,102109.91
2023-04-16T08:35:10.361Z,102113.78
2023-04-16T08:37:36.817Z,102110.16
2023-04-16T08:40:03.676Z,102112.56
2023-04-16T08:42:40.614Z,102122.34
2023-04-16T08:45:09.354Z,102116.53
2023-04-16T08:47:37.295Z,102120.00
2023-04-16T08:50:05.283Z,102126.31
2023-04-16T08:52:32.398Z,102131.00
2023-04-16T08:55:11.685Z,102129.47
2023-04-16T08:57:42.936Z,102132.69
2023-04-16T09:00:12.092Z,102128.00
2023-04-16T09:02:39.292Z,102140.09
2023-04-16T09:05:07.482Z,102142.19
2023-04-16T09:07:34.915Z,102142.53
2023-04-16T09:10:02.019Z,102138.81
2023-04-16T09:12:30.226Z,102132.28
2023-04-16T09:14:57.118Z,102141.47
2023-04-16T09:17:23.597Z,102147.69
2023-04-16T09:19:50.341Z,102146.41
2023-04-16T09:22:17.250Z,102142.13
2023-04-16T09:24:43.702Z,102140.53
2023-04-16T09:27:12.007Z,102142.53
2023-04-16T09:29:42.071Z,102145.78
2023-04-16T09:32:10.823Z,102140.06
2023-04-16T09:35:00.786Z,102137.31
2023-04-16T09:37:31.080Z,102147.28
2023-04-16T09:40:04.903Z,102152.31
2023-04-16T09:42:34.080Z,102144.25
2023-04-16T09:45:03.329Z,102142.59
2023-04-16T09:47:45.945Z,102140.59
2023-04-16T09:50:18.579Z,102141.78
2023-04-16T09:52:49.143Z,102143.03
2023-04-16T09:55:15.656Z,102147.69
2023-04-16T09:57:42.093Z,102144.91
2023-04-16T10:00:10.408Z,102138.50
2023-04-16T10:02:41.732Z,102138.06
2023-04-16T10:05:09.029Z,102132.75
2023-04-16T10:07:36.991Z,102131.34
2023-04-16T10:10:04.688Z,102135.31
2023-04-16T10:12:32.863Z,102140.47
2023-04-16T10:14:59.839Z,102144.91
2023-04-16T10:17:29.929Z,102149.03
2023-04-16T10:19:58.310Z,102144.19
2023-04-16T10:22:25.853Z,102144.91
2023-04-16T10:24:53.258Z,102139.91
2023-04-16T10:27:20.539Z,102146.72
2023-04-16T10:29:47.924Z,102140.63
2023-04-16T10:32:15.493Z,102146.31
2023-04-16T10:34:42.232Z,102151.72
2023-04-16T10:37:08.846Z,102148.47
2023-04-16T10:39:39.130Z,102149.63
2023-04-16T10:42:12.818Z,102139.91
2023-04-16T10:44:45.236Z,102147.47
2023-04-16T10:47:13.455Z,102143.91
2023-04-16T10:49:40.489Z,102152.00
2023-04-16T10:52:14.820Z,102152.56
2023-04-16T10:54:41.436Z,102143.72
2023-04-16T10:57:16.229Z,102149.31
2023-04-16T10:59:44.068Z,102150.88
2023-04-16T11:02:15.728Z,102138.47
2023-04-16T11:04:45.613Z,102153.00
2023-04-16T11:07:15.357Z,102145.28
2023-04-16T11:10:02.086Z,102145.41
2023-04-16T11:12:38.422Z,102144.66
2023-04-16T11:15:09.314Z,102151.00
2023-04-16T11:17:41.064Z,102145.19
2023-04-16T11:20:19.474Z,102149.59
2023-04-16T11:22:50.686Z,102158.16
2023-04-16T11:25:24.456Z,102155.47
2023-04-16T11:27:52.050Z,102152.31
2023-04-16T11:30:27.924Z,102152.16
2023-04-16T11:32:54.438Z,102156.72
2023-04-16T11:35:21.128Z,102160.28
2023-04-16T11:37:51.142Z,102156.59
2023-04-16T11:40:17.809Z,102156.75
2023-04-16T11:42:44.472Z,102162.28
2023-04-16T11:45:12.203Z,102159.44
2023-04-16T11:47:45.862Z,102163.56
2023-04-16T11:50:30.523Z,102158.56
2023-04-16T11:53:04.161Z,102159.72
2023-04-16T11:55:31.125Z,102158.44
2023-04-16T11:57:57.769Z,102154.75
2023-04-16T12:00:25.028Z,102157.88
2023-04-16T12:02:55.063Z,102155.69
2023-04-16T12:05:28.685Z,102161.44
2023-04-16T12:07:55.382Z,102171.28
2023-04-16T12:10:21.975Z,102172.84
2023-04-16T12:12:48.653Z,102167.16
2023-04-16T12:15:15.205Z,102166.84
2023-04-16T12:17:41.733Z,102180.41
2023-04-16T12:20:13.657Z,102173.84
2023-04-16T12:22:44.609Z,102176.53
2023-04-16T12:25:13.195Z,102177.84
2023-04-16T12:27:47.309Z,102181.41
2023-04-16T12:30:18.280Z,102179.41
2023-04-16T12:32:49.565Z,102183.84
2023-04-16T12:35:33.576Z,102186.13
2023-04-16T12:38:00.699Z,102176.94
2023-04-16T12:40:27.590Z,102179.13
2023-04-16T12:42:54.892Z,102186.25
2023-04-16T12:45:22.846Z,102185.09
2023-04-16T12:47:50.534Z,102184.06
2023-04-16T12:50:17.398Z,102181.69
2023-04-16T12:52:44.054Z,102179.97
2023-04-16T12:55:10.664Z,102176.25
2023-04-16T12:57:37.224Z,102183.53
2023-04-16T13:00:06.293Z,102183.22
2023-04-16T13:02:32.931Z,102180.53
2023-04-16T13:04:59.543Z,102176.66
2023-04-16T13:07:26.847Z,102176.34
2023-04-16T13:09:53.332Z,102179.59
2023-04-16T13:12:19.746Z,102178.63
2023-04-16T13:14:46.306Z,102181.75
2023-04-16T13:17:12.696Z,102186.22
2023-04-16T13:19:39.117Z,102183.34
2023-04-16T13:22:05.672Z,102183.50
2023-04-16T13:24:32.114Z,102181.81
2023-04-16T13:26:58.576Z,102182.09
2023-04-16T13:29:25.088Z,102180.97
2023-04-16T13:31:52.152Z,102179.13
2023-04-16T13:34:18.688Z,102183.09
2023-04-16T13:36:45.436Z,102178.81
2023-04-16T13:39:12.156Z,102181.56
2023-04-16T13:41:39.003Z,102177.13
2023-04-16T13:44:06.431Z,102184.81
2023-04-16T13:46:33.231Z,102180.69
2023-04-16T13:49:00.014Z,102183.09
2023-04-16T13:51:27.684Z,102182.41
2023-04-16T13:53:55.979Z,102183.84
2023-04-16T13:56:22.586Z,102177.53
2023-04-16T13:58:49.449Z,102180.25
2023-04-16T14:01:17.300Z,102178.53
2023-04-16T14:03:43.857Z,102174.28
2023-04-16T14:06:10.536Z,102172.41
2023-04-16T14:08:38.304Z,102179.69
2023-04-16T14:11:06.417Z,102173.53
2023-04-16T14:13:32.981Z,102179.94
2023-04-16T14:15:59.638Z,102169.69
2023-04-16T14:18:26.154Z,102171.84
2023-04-16T14:20:52.633Z,102169.97
2023-04-16T14:23:19.090Z,102179.66
2023-04-16T14:25:45.635Z,102175.84
2023-04-16T14:28:13.647Z,102175.09
2023-04-16T14:30:42.050Z,102175.38
2023-04-16T14:33:08.547Z,102168.81
2023-04-16T14:35:34.966Z,102168.34
2023-04-16T14:38:01.742Z,102162.91
2023-04-16T14:40:28.195Z,102167.84
2023-04-16T14:42:54.625Z,102175.97
2023-04-16T14:45:21.207Z,102167.13
2023-04-16T14:47:47.836Z,102174.28
2023-04-16T14:50:15.629Z,102178.53
2023-04-16T14:52:42.288Z,102175.72
2023-04-16T14:55:08.847Z,102170.28
2023-04-16T14:57:35.622Z,102176.13
2023-04-16T15:00:02.618Z,102168.44
2023-04-16T15:02:29.470Z,102165.28
2023-04-16T15:04:56.149Z,102165.28
2023-04-16T15:07:22.750Z,102160.00
2023-04-16T15:09:49.201Z,102150.03
2023-04-16T15:12:17.946Z,102156.72
2023-04-16T15:14:45.617Z,102165.28
2023-04-16T15:17:12.206Z,102162.84
2023-04-16T15:19:38.702Z,102164.00
2023-04-16T15:22:05.173Z,102166.69
2023-04-16T15:24:31.595Z,102162.13
2023-04-16T15:26:58.131Z,102165.25
2023-04-16T15:29:24.676Z,102157.66
2023-04-16T15:31:51.104Z,102165.06
2023-04-16T15:34:17.593Z,102159.91
2023-04-16T15:36:44.040Z,102151.94
2023-04-16T15:39:10.969Z,102157.53
2023-04-16T15:41:53.379Z,102163.31
2023-04-16T15:44:23.908Z,102165.91
2023-04-16T15:46:50.692Z,102168.91
2023-04-16T15:49:17.319Z,102167.91
2023-04-16T15:51:43.917Z,102163.03
2023-04-16T15:54:10.527Z,102159.63
2023-04-16T15:56:37.118Z,102164.66
2023-04-16T15:59:03.964Z,102168.09
2023-04-16T16:01:31.155Z,102170.06
2023-04-16T16:03:58.011Z,102169.09
2023-04-16T16:06:24.826Z,102172.97
2023-04-16T16:08:51.352Z,102169.81
2023-04-16T16:11:17.817Z,102168.53
2023-04-16T16:13:44.428Z,102162.81
2023-04-16T16:16:10.936Z,102168.84
2023-04-16T16:18:37.761Z,102166.41
2023-04-16T16:21:04.232Z,102173.00
2023-04-16T16:23:30.843Z,102178.25
2023-04-16T16:25:57.640Z,102180.84
2023-04-16T16:28:25.107Z,102179.97
2023-04-16T16:30:53.787Z,102177.44
2023-04-16T16:33:20.749Z,102171.44
2023-04-16T16:35:47.394Z,102179.81
2023-04-16T16:38:13.874Z,102177.56
2023-04-16T16:40:40.409Z,102180.53
2023-04-16T16:43:06.943Z,102185.66
2023-04-16T16:45:33.418Z,102181.69
2023-04-16T16:48:00.218Z,102179.00
2023-04-16T16:50:26.982Z,102176.84
2023-04-16T16:52:53.553Z,102173.13
2023-04-16T16:55:20.960Z,102179.56
2023-04-16T16:57:47.425Z,102185.56
2023-04-16T17:00:16.121Z,102190.09
2023-04-16T17:02:43.291Z,102188.50
2023-04-16T17:05:10.075Z,102190.94
2023-04-16T17:07:36.544Z,102192.19
2023-04-16T17:10:06.096Z,102198.31
2023-04-16T17:12:33.437Z,102195.50
2023-04-16T17:14:59.956Z,102208.31
2023-04-16T17:17:27.015Z,102213.63
2023-04-16T17:19:53.847Z,102207.69
2023-04-16T17:24:48.094Z,102210.91
2023-04-16T17:27:14.879Z,102209.53
2023-04-16T17:29:41.309Z,102215.97
2023-04-16T17:32:07.774Z,102221.00
2023-04-16T17:34:34.740Z,102223.03
2023-04-16T17:37:01.192Z,102215.44
2023-04-16T17:39:27.608Z,102216.56
2023-04-16T17:41:57.750Z,102217.16
2023-04-16T17:44:25.834Z,102224.69
2023-04-16T17:46:52.292Z,102225.66
2023-04-16T17:49:18.735Z,102218.16
2023-04-16T17:51:45.593Z,102219.94
2023-04-16T17:54:12.169Z,102227.34
2023-04-16T17:56:38.983Z,102238.28
2023-04-16T17:59:05.559Z,102237.78
2023-04-16T18:01:32.041Z,102240.75
2023-04-16T18:03:58.807Z,102235.75
2023-04-16T18:06:26.438Z,102243.66
2023-04-16T18:08:52.955Z,102246.31
2023-04-16T18:11:19.424Z,102244.16
2023-04-16T18:13:45.937Z,102247.03
2023-04-16T18:16:16.705Z,102249.50
2023-04-16T18:18:44.393Z,102250.56
2023-04-16T18:21:11.676Z,102253.66
2023-04-16T18:23:38.154Z,102255.97
2023-04-16T18:26:07.611Z,102252.00
2023-04-16T18:28:35.048Z,102256.75
2023-04-16T18:31:06.775Z,102254.31
2023-04-16T18:33:53.862Z,102262.00
2023-04-16T18:36:19.848Z,102261.44
2023-04-16T18:38:59.228Z,102259.97
2023-04-16T18:41:27.257Z,102272.25
2023-04-16T18:43:53.685Z,102265.25
2023-04-16T18:46:20.213Z,102279.06
2023-04-16T18:48:46.659Z,102276.97
2023-04-16T18:51:15.445Z,102284.97
2023-04-16T18:53:44.411Z,102287.06
2023-04-16T18:56:11.666Z,102289.16
2023-04-16T18:58:38.329Z,102286.00
2023-04-16T19:01:07.780Z,102297.03
2023-04-16T19:03:34.538Z,102298.28
2023-04-16T19:06:01.492Z,102301.75
2023-04-16T19:08:28.071Z,102302.59
2023-04-16T19:10:54.549Z,102308.25
2023-04-16T19:13:20.988Z,102311.56
2023-04-16T19:15:47.475Z,102311.09
2023-04-16T19:18:13.996Z,102309.09
2023-04-16T19:20:40.587Z,102314.97
2023-04-16T19:23:09.121Z,102312.69
2023-04-16T19:25:38.950Z,102313.13
2023-04-16T19:28:05.529Z,102306.75
2023-04-16T19:30:32.043Z,102315.84
2023-04-16T19:32:58.713Z,102314.72
2023-04-16T19:35:25.427Z,102320.41
2023-04-16T19:37:51.923Z,102316.47
2023-04-16T19:40:18.401Z,102317.69
2023-04-16T19:42:45.518Z,102320.41
2023-04-16T19:45:12.027Z,102314.47
2023-04-16T19:47:38.616Z,102309.47
2023-04-16T19:50:05.884Z,102308.59
2023-04-16T19:52:37.323Z,102314.38
2023-04-16T19:55:04.609Z,102318.78
2023-04-16T19:57:31.184Z,102321.22
2023-04-16T19:59:57.712Z,102319.41
2023-04-16T20:02:24.345Z,102324.31
2023-04-16T20:04:52.885Z,102318.19
2023-04-16T20:07:20.250Z,102321.75
2023-04-16T20:09:46.693Z,102325.66
2023-04-16T20:12:13.356Z,102324.56
2023-04-16T20:14:40.429Z,102324.06
2023-04-16T20:17:10.233Z,102339.53
2023-04-16T20:19:41.073Z,102330.81
2023-04-16T20:22:07.624Z,102336.94
2023-04-16T20:24:34.355Z,102337.72
2023-04-16T20:27:01.719Z,102329.34
2023-04-16T20:29:28.385Z,102330.81
2023-04-16T20:31:54.970Z,102334.00
2023-04-16T20:34:21.462Z,102344.44
2023-04-16T20:36:48.167Z,102338.31
2023-04-16T20:39:14.762Z,102334.00
2023-04-16T20:41:44.315Z,102335.47
2023-04-16T20:44:18.072Z,102330.06
2023-04-16T20:46:49.439Z,102330.69
2023-04-16T20:49:17.728Z,102318.56
2023-04-16T20:51:44.515Z,102326.50
2023-04-16T20:54:11.087Z,102329.97
2023-04-16T20:56:37.589Z,102313.16
2023-04-16T20:59:04.192Z,102318.06
2023-04-16T21:01:30.778Z,102321.38
2023-04-16T21:03:57.710Z,102316.09
2023-04-16T21:06:24.419Z,102322.72
2023-04-16T21:08:51.065Z,102322.22
2023-04-16T21:11:17.467Z,102327.63
2023-04-16T21:13:44.007Z,102323.72
2023-04-16T21:16:12.391Z,102311.81
2023-04-16T21:18:39.007Z,102315.09
2023-04-16T21:21:05.561Z,102311.69
2023-04-16T21:23:32.018Z,102313.41
2023-04-16T21:25:58.471Z,102311.56
2023-04-16T21:28:24.920Z,102313.25
2023-04-16T21:30:52.418Z,102314.13
2023-04-16T21:33:18.903Z,102314.63
2023-04-16T21:35:51.018Z,102309.59
2023-04-16T21:38:17.601Z,102316.97
2023-04-16T21:40:45.969Z,102314.13
2023-04-16T21:43:12.429Z,102309.34
2023-04-16T21:45:39.776Z,102311.19
2023-04-16T21:48:06.651Z,102312.91
2023-04-16T21:50:33.128Z,102315.00
2023-04-16T21:52:59.632Z,102310.06
2023-04-16T21:55:26.282Z,102309.34
2023-04-16T21:57:52.739Z,102314.97
2023-04-16T22:00:19.431Z,102309.59
2023-04-16T22:02:46.011Z,102310.44
2023-04-16T22:05:12.750Z,102312.66
2023-04-16T22:07:39.378Z,102305.19
2023-04-16T22:10:06.860Z,102312.19
2023-04-16T22:12:33.296Z,102315.84
2023-04-16T22:15:02.856Z,102313.78
2023-04-16T22:17:30.396Z,102311.66
2023-04-16T22:20:00.555Z,102314.72
2023-04-16T22:22:27.101Z,102315.94
2023-04-16T22:24:53.688Z,102317.28
2023-04-16T22:27:20.132Z,102316.19
2023-04-16T22:29:46.625Z,102315.72
2023-04-16T22:32:13.209Z,102313.66
2023-04-16T22:34:39.665Z,102318.41
2023-04-16T22:37:08.030Z,102322.31
2023-04-16T22:39:34.889Z,102320.00
2023-04-16T22:42:02.601Z,102317.28
2023-04-16T22:44:29.180Z,102320.88
2023-04-16T22:46:55.623Z,102312.78
2023-04-16T22:49:22.144Z,102319.03
2023-04-16T22:51:48.858Z,102313.84
2023-04-16T22:54:15.269Z,102320.72
2023-04-16T22:56:41.745Z,102311.88
2023-04-16T22:59:08.274Z,102318.03
2023-04-16T23:01:35.141Z,102311.88
2023-04-16T23:04:02.067Z,102315.34
2023-04-16T23:06:28.580Z,102313.25
2023-04-16T23:08:55.028Z,102321.09
2023-04-16T23:11:21.420Z,102315.81
2023-04-16T23:13:47.823Z,102321.09
2023-04-16T23:16:14.419Z,102322.44
2023-04-16T23:18:40.967Z,102316.28
2023-04-16T23:21:07.414Z,102316.91
2023-04-16T23:23:33.957Z,102319.41
2023-04-16T23:26:02.453Z,102316.44
2023-04-16T23:28:28.921Z,102315.84
2023-04-16T23:30:55.697Z,102322.56
2023-04-16T23:33:22.218Z,102320.72
2023-04-16T23:35:48.679Z,102319.59
2023-04-16T23:38:15.133Z,102318.63
2023-04-16T23:40:41.719Z,102323.41
2023-04-16T23:43:08.305Z,102320.94
2023-04-16T23:45:34.813Z,102323.75
2023-04-16T23:48:01.396Z,102314.06
2023-04-16T23:50:28.021Z,102313.97
2023-04-16T23:52:54.456Z,102316.53
2023-04-16T23:55:21.165Z,102317.78
2023-04-16T23:57:47.624Z,102323.41
